sensor_id;sensor_type;location;lat;lon;timestamp;P1;durP1;ratioP1;P2;durP2;ratioP2
7477;SDS011;3780;42.424;25.636;2022-10-16T00:01:17;9.38;;;6.32;;
7477;SDS011;3780;42.424;25.636;2022-10-16T00:03:45;7.90;;;5.82;;
7477;SDS011;3780;42.424;25.636;2022-10-16T00:06:11;10.05;;;5.68;;
7477;SDS011;3780;42.424;25.636;2022-10-16T00:08:38;8.35;;;6.03;;
7477;SDS011;3780;42.424;25.636;2022-10-16T00:11:05;8.65;;;5.75;;
7477;SDS011;3780;42.424;25.636;2022-10-16T00:13:33;11.45;;;5.78;;
7477;SDS011;3780;42.424;25.636;2022-10-16T00:16:00;10.38;;;5.68;;
7477;SDS011;3780;42.424;25.636;2022-10-16T00:18:27;9.73;;;6.05;;
7477;SDS011;3780;42.424;25.636;2022-10-16T00:20:53;8.75;;;5.65;;
7477;SDS011;3780;42.424;25.636;2022-10-16T00:23:20;8.85;;;5.63;;
7477;SDS011;3780;42.424;25.636;2022-10-16T00:25:54;11.75;;;6.35;;
7477;SDS011;3780;42.424;25.636;2022-10-16T00:28:23;11.48;;;6.65;;
7477;SDS011;3780;42.424;25.636;2022-10-16T00:30:49;10.90;;;6.38;;
7477;SDS011;3780;42.424;25.636;2022-10-16T00:33:15;8.55;;;5.40;;
7477;SDS011;3780;42.424;25.636;2022-10-16T00:35:40;7.57;;;5.45;;
7477;SDS011;3780;42.424;25.636;2022-10-16T00:38:06;8.68;;;6.03;;
7477;SDS011;3780;42.424;25.636;2022-10-16T00:40:31;8.30;;;5.20;;
7477;SDS011;3780;42.424;25.636;2022-10-16T00:42:57;12.93;;;5.95;;
7477;SDS011;3780;42.424;25.636;2022-10-16T00:45:22;9.85;;;6.25;;
7477;SDS011;3780;42.424;25.636;2022-10-16T00:47:48;10.73;;;5.30;;
7477;SDS011;3780;42.424;25.636;2022-10-16T00:50:27;10.98;;;6.47;;
7477;SDS011;3780;42.424;25.636;2022-10-16T00:52:56;12.60;;;6.30;;
7477;SDS011;3780;42.424;25.636;2022-10-16T00:55:23;12.55;;;5.80;;
7477;SDS011;3780;42.424;25.636;2022-10-16T00:57:50;10.52;;;5.80;;
7477;SDS011;3780;42.424;25.636;2022-10-16T01:00:18;8.43;;;5.47;;
7477;SDS011;3780;42.424;25.636;2022-10-16T01:02:56;6.43;;;4.88;;
7477;SDS011;3780;42.424;25.636;2022-10-16T01:05:44;10.23;;;5.43;;
7477;SDS011;3780;42.424;25.636;2022-10-16T01:08:21;7.18;;;5.07;;
7477;SDS011;3780;42.424;25.636;2022-10-16T01:10:59;5.97;;;5.18;;
7477;SDS011;3780;42.424;25.636;2022-10-16T01:13:40;6.75;;;5.07;;
7477;SDS011;3780;42.424;25.636;2022-10-16T01:16:24;7.82;;;5.18;;
7477;SDS011;3780;42.424;25.636;2022-10-16T01:19:02;7.13;;;4.95;;
7477;SDS011;3780;42.424;25.636;2022-10-16T01:21:42;13.38;;;5.95;;
7477;SDS011;3780;42.424;25.636;2022-10-16T01:24:26;11.05;;;5.38;;
7477;SDS011;3780;42.424;25.636;2022-10-16T01:27:15;10.90;;;5.63;;
7477;SDS011;3780;42.424;25.636;2022-10-16T01:37:46;6.13;;;5.38;;
7477;SDS011;3780;42.424;25.636;2022-10-16T01:40:32;8.85;;;5.45;;
7477;SDS011;3780;42.424;25.636;2022-10-16T01:43:05;11.38;;;5.45;;
7477;SDS011;3780;42.424;25.636;2022-10-16T01:48:00;7.88;;;5.55;;
7477;SDS011;3780;42.424;25.636;2022-10-16T01:50:30;7.55;;;5.47;;
7477;SDS011;3780;42.424;25.636;2022-10-16T01:52:59;7.75;;;5.78;;
7477;SDS011;3780;42.424;25.636;2022-10-16T01:55:29;9.23;;;6.10;;
7477;SDS011;3780;42.424;25.636;2022-10-16T01:57:59;7.70;;;6.00;;
7477;SDS011;3780;42.424;25.636;2022-10-16T02:00:27;8.43;;;6.10;;
7477;SDS011;3780;42.424;25.636;2022-10-16T02:02:54;11.00;;;5.93;;
7477;SDS011;3780;42.424;25.636;2022-10-16T02:05:24;7.95;;;5.38;;
7477;SDS011;3780;42.424;25.636;2022-10-16T02:08:14;8.77;;;5.90;;
7477;SDS011;3780;42.424;25.636;2022-10-16T02:10:39;7.93;;;6.03;;
7477;SDS011;3780;42.424;25.636;2022-10-16T02:13:09;8.55;;;6.07;;
7477;SDS011;3780;42.424;25.636;2022-10-16T02:15:37;10.23;;;6.10;;
7477;SDS011;3780;42.424;25.636;2022-10-16T02:18:06;10.85;;;6.75;;
7477;SDS011;3780;42.424;25.636;2022-10-16T02:20:33;9.02;;;5.90;;
7477;SDS011;3780;42.424;25.636;2022-10-16T02:23:07;7.90;;;6.00;;
7477;SDS011;3780;42.424;25.636;2022-10-16T02:25:39;8.57;;;5.75;;
7477;SDS011;3780;42.424;25.636;2022-10-16T02:30:35;10.65;;;6.45;;
7477;SDS011;3780;42.424;25.636;2022-10-16T02:33:04;10.63;;;6.30;;
7477;SDS011;3780;42.424;25.636;2022-10-16T02:35:33;9.88;;;5.80;;
7477;SDS011;3780;42.424;25.636;2022-10-16T02:37:59;6.78;;;5.22;;
7477;SDS011;3780;42.424;25.636;2022-10-16T02:40:25;9.73;;;5.90;;
7477;SDS011;3780;42.424;25.636;2022-10-16T02:42:52;8.52;;;5.75;;
7477;SDS011;3780;42.424;25.636;2022-10-16T02:45:20;11.65;;;6.35;;
7477;SDS011;3780;42.424;25.636;2022-10-16T02:47:46;9.00;;;6.28;;
7477;SDS011;3780;42.424;25.636;2022-10-16T02:50:11;6.95;;;5.65;;
7477;SDS011;3780;42.424;25.636;2022-10-16T02:52:37;8.05;;;6.15;;
7477;SDS011;3780;42.424;25.636;2022-10-16T02:55:03;9.65;;;5.57;;
7477;SDS011;3780;42.424;25.636;2022-10-16T02:57:28;7.63;;;6.20;;
7477;SDS011;3780;42.424;25.636;2022-10-16T02:59:54;7.93;;;5.43;;
7477;SDS011;3780;42.424;25.636;2022-10-16T03:02:19;8.80;;;5.90;;
7477;SDS011;3780;42.424;25.636;2022-10-16T03:04:45;9.95;;;6.10;;
7477;SDS011;3780;42.424;25.636;2022-10-16T03:07:10;8.38;;;5.22;;
7477;SDS011;3780;42.424;25.636;2022-10-16T03:09:36;8.00;;;5.85;;
7477;SDS011;3780;42.424;25.636;2022-10-16T03:12:01;9.90;;;5.75;;
7477;SDS011;3780;42.424;25.636;2022-10-16T03:14:27;10.45;;;5.40;;
7477;SDS011;3780;42.424;25.636;2022-10-16T03:16:53;9.05;;;5.00;;
7477;SDS011;3780;42.424;25.636;2022-10-16T03:19:18;11.77;;;5.68;;
7477;SDS011;3780;42.424;25.636;2022-10-16T03:21:44;8.60;;;5.40;;
7477;SDS011;3780;42.424;25.636;2022-10-16T03:24:10;8.07;;;4.65;;
7477;SDS011;3780;42.424;25.636;2022-10-16T03:26:36;8.50;;;5.50;;
7477;SDS011;3780;42.424;25.636;2022-10-16T03:29:01;8.82;;;5.65;;
7477;SDS011;3780;42.424;25.636;2022-10-16T03:31:28;12.40;;;5.63;;
7477;SDS011;3780;42.424;25.636;2022-10-16T03:33:55;11.35;;;5.75;;
7477;SDS011;3780;42.424;25.636;2022-10-16T03:36:20;8.10;;;4.72;;
7477;SDS011;3780;42.424;25.636;2022-10-16T03:38:46;9.85;;;5.13;;
7477;SDS011;3780;42.424;25.636;2022-10-16T03:41:11;8.18;;;5.00;;
7477;SDS011;3780;42.424;25.636;2022-10-16T03:43:37;7.50;;;4.80;;
7477;SDS011;3780;42.424;25.636;2022-10-16T03:46:02;7.75;;;5.10;;
7477;SDS011;3780;42.424;25.636;2022-10-16T03:48:28;9.65;;;5.10;;
7477;SDS011;3780;42.424;25.636;2022-10-16T03:50:54;8.77;;;5.13;;
7477;SDS011;3780;42.424;25.636;2022-10-16T03:53:19;8.38;;;5.15;;
7477;SDS011;3780;42.424;25.636;2022-10-16T03:55:45;29.77;;;16.38;;
7477;SDS011;3780;42.424;25.636;2022-10-16T03:58:11;14.90;;;6.88;;
7477;SDS011;3780;42.424;25.636;2022-10-16T04:00:41;8.23;;;5.43;;
7477;SDS011;3780;42.424;25.636;2022-10-16T04:03:07;14.43;;;5.57;;
7477;SDS011;3780;42.424;25.636;2022-10-16T04:05:33;11.05;;;5.78;;
7477;SDS011;3780;42.424;25.636;2022-10-16T04:07:59;11.05;;;5.25;;
7477;SDS011;3780;42.424;25.636;2022-10-16T04:10:24;8.57;;;4.95;;
7477;SDS011;3780;42.424;25.636;2022-10-16T04:12:50;10.13;;;5.40;;
7477;SDS011;3780;42.424;25.636;2022-10-16T04:15:15;10.52;;;5.40;;
7477;SDS011;3780;42.424;25.636;2022-10-16T04:17:41;11.35;;;5.63;;
7477;SDS011;3780;42.424;25.636;2022-10-16T04:20:06;6.53;;;5.13;;
7477;SDS011;3780;42.424;25.636;2022-10-16T04:22:32;12.98;;;6.30;;
7477;SDS011;3780;42.424;25.636;2022-10-16T04:24:57;10.52;;;4.90;;
7477;SDS011;3780;42.424;25.636;2022-10-16T04:27:23;19.23;;;8.48;;
7477;SDS011;3780;42.424;25.636;2022-10-16T04:29:49;10.00;;;5.82;;
7477;SDS011;3780;42.424;25.636;2022-10-16T04:32:14;6.97;;;5.10;;
7477;SDS011;3780;42.424;25.636;2022-10-16T04:34:40;6.80;;;5.15;;
7477;SDS011;3780;42.424;25.636;2022-10-16T04:37:05;13.40;;;6.20;;
7477;SDS011;3780;42.424;25.636;2022-10-16T04:39:31;8.90;;;5.05;;
7477;SDS011;3780;42.424;25.636;2022-10-16T04:41:56;9.57;;;5.03;;
7477;SDS011;3780;42.424;25.636;2022-10-16T04:44:22;11.43;;;5.38;;
7477;SDS011;3780;42.424;25.636;2022-10-16T04:46:47;13.43;;;5.13;;
7477;SDS011;3780;42.424;25.636;2022-10-16T04:49:14;9.50;;;5.57;;
7477;SDS011;3780;42.424;25.636;2022-10-16T04:51:40;9.13;;;5.25;;
7477;SDS011;3780;42.424;25.636;2022-10-16T04:54:05;8.02;;;4.97;;
7477;SDS011;3780;42.424;25.636;2022-10-16T04:56:31;11.57;;;5.47;;
7477;SDS011;3780;42.424;25.636;2022-10-16T04:58:56;8.55;;;5.03;;
7477;SDS011;3780;42.424;25.636;2022-10-16T05:01:22;8.60;;;5.07;;
7477;SDS011;3780;42.424;25.636;2022-10-16T05:03:47;16.58;;;6.55;;
7477;SDS011;3780;42.424;25.636;2022-10-16T05:06:13;14.35;;;7.15;;
7477;SDS011;3780;42.424;25.636;2022-10-16T05:08:38;21.00;;;14.93;;
7477;SDS011;3780;42.424;25.636;2022-10-16T05:11:04;21.63;;;11.50;;
7477;SDS011;3780;42.424;25.636;2022-10-16T05:13:29;16.23;;;9.23;;
7477;SDS011;3780;42.424;25.636;2022-10-16T05:15:55;12.40;;;6.50;;
7477;SDS011;3780;42.424;25.636;2022-10-16T05:18:20;14.85;;;9.40;;
7477;SDS011;3780;42.424;25.636;2022-10-16T05:20:46;22.63;;;12.68;;
7477;SDS011;3780;42.424;25.636;2022-10-16T05:23:11;55.72;;;36.75;;
7477;SDS011;3780;42.424;25.636;2022-10-16T05:25:37;43.58;;;27.33;;
7477;SDS011;3780;42.424;25.636;2022-10-16T05:28:02;19.13;;;14.02;;
7477;SDS011;3780;42.424;25.636;2022-10-16T05:30:28;32.33;;;19.13;;
7477;SDS011;3780;42.424;25.636;2022-10-16T05:32:53;11.57;;;6.57;;
7477;SDS011;3780;42.424;25.636;2022-10-16T05:35:19;10.68;;;7.03;;
7477;SDS011;3780;42.424;25.636;2022-10-16T05:37:45;13.38;;;7.78;;
7477;SDS011;3780;42.424;25.636;2022-10-16T05:40:11;13.23;;;7.85;;
7477;SDS011;3780;42.424;25.636;2022-10-16T05:42:38;15.10;;;8.07;;
7477;SDS011;3780;42.424;25.636;2022-10-16T05:45:04;18.13;;;8.25;;
7477;SDS011;3780;42.424;25.636;2022-10-16T05:47:31;14.77;;;9.15;;
7477;SDS011;3780;42.424;25.636;2022-10-16T05:49:56;16.67;;;9.43;;
7477;SDS011;3780;42.424;25.636;2022-10-16T05:52:22;16.85;;;8.95;;
7477;SDS011;3780;42.424;25.636;2022-10-16T05:54:47;15.05;;;8.07;;
7477;SDS011;3780;42.424;25.636;2022-10-16T05:57:13;14.50;;;7.45;;
7477;SDS011;3780;42.424;25.636;2022-10-16T05:59:38;11.80;;;6.78;;
7477;SDS011;3780;42.424;25.636;2022-10-16T06:02:04;9.00;;;5.63;;
7477;SDS011;3780;42.424;25.636;2022-10-16T06:04:29;12.57;;;5.05;;
7477;SDS011;3780;42.424;25.636;2022-10-16T06:06:57;6.00;;;4.18;;
7477;SDS011;3780;42.424;25.636;2022-10-16T06:09:25;9.05;;;4.70;;
7477;SDS011;3780;42.424;25.636;2022-10-16T06:11:51;8.25;;;4.85;;
7477;SDS011;3780;42.424;25.636;2022-10-16T06:14:16;7.20;;;4.90;;
7477;SDS011;3780;42.424;25.636;2022-10-16T06:16:42;9.48;;;4.57;;
7477;SDS011;3780;42.424;25.636;2022-10-16T06:19:07;12.02;;;5.05;;
7477;SDS011;3780;42.424;25.636;2022-10-16T06:21:34;7.57;;;5.10;;
7477;SDS011;3780;42.424;25.636;2022-10-16T06:24:00;10.95;;;5.57;;
7477;SDS011;3780;42.424;25.636;2022-10-16T06:26:26;8.20;;;4.07;;
7477;SDS011;3780;42.424;25.636;2022-10-16T06:28:55;8.05;;;4.05;;
7477;SDS011;3780;42.424;25.636;2022-10-16T06:31:23;8.55;;;4.13;;
7477;SDS011;3780;42.424;25.636;2022-10-16T06:33:52;5.65;;;3.83;;
7477;SDS011;3780;42.424;25.636;2022-10-16T06:36:19;8.52;;;4.18;;
7477;SDS011;3780;42.424;25.636;2022-10-16T06:38:45;13.20;;;4.93;;
7477;SDS011;3780;42.424;25.636;2022-10-16T06:41:13;37.35;;;6.35;;
7477;SDS011;3780;42.424;25.636;2022-10-16T06:43:40;11.40;;;4.65;;
7477;SDS011;3780;42.424;25.636;2022-10-16T06:46:07;7.15;;;3.83;;
7477;SDS011;3780;42.424;25.636;2022-10-16T06:48:35;10.13;;;4.60;;
7477;SDS011;3780;42.424;25.636;2022-10-16T06:51:05;8.70;;;4.18;;
7477;SDS011;3780;42.424;25.636;2022-10-16T06:53:34;7.55;;;4.35;;
7477;SDS011;3780;42.424;25.636;2022-10-16T06:56:07;7.47;;;4.28;;
7477;SDS011;3780;42.424;25.636;2022-10-16T06:58:34;10.50;;;4.40;;
7477;SDS011;3780;42.424;25.636;2022-10-16T07:01:00;10.00;;;4.57;;
7477;SDS011;3780;42.424;25.636;2022-10-16T07:03:25;13.43;;;5.70;;
7477;SDS011;3780;42.424;25.636;2022-10-16T07:05:50;9.32;;;4.38;;
7477;SDS011;3780;42.424;25.636;2022-10-16T07:08:16;12.15;;;4.75;;
7477;SDS011;3780;42.424;25.636;2022-10-16T07:10:41;6.90;;;4.30;;
7477;SDS011;3780;42.424;25.636;2022-10-16T07:13:07;15.05;;;5.50;;
7477;SDS011;3780;42.424;25.636;2022-10-16T07:15:33;10.80;;;4.70;;
7477;SDS011;3780;42.424;25.636;2022-10-16T07:17:59;71.55;;;10.32;;
7477;SDS011;3780;42.424;25.636;2022-10-16T07:20:24;14.15;;;4.97;;
7477;SDS011;3780;42.424;25.636;2022-10-16T07:22:50;65.47;;;8.13;;
7477;SDS011;3780;42.424;25.636;2022-10-16T07:25:16;73.72;;;10.20;;
7477;SDS011;3780;42.424;25.636;2022-10-16T07:27:41;106.28;;;13.63;;
7477;SDS011;3780;42.424;25.636;2022-10-16T07:30:07;34.88;;;7.72;;
7477;SDS011;3780;42.424;25.636;2022-10-16T07:32:33;23.40;;;12.00;;
7477;SDS011;3780;42.424;25.636;2022-10-16T07:34:58;11.93;;;6.30;;
7477;SDS011;3780;42.424;25.636;2022-10-16T07:37:24;11.65;;;6.10;;
7477;SDS011;3780;42.424;25.636;2022-10-16T07:39:49;21.38;;;7.75;;
7477;SDS011;3780;42.424;25.636;2022-10-16T07:42:15;42.47;;;7.05;;
7477;SDS011;3780;42.424;25.636;2022-10-16T07:44:40;14.63;;;6.97;;
7477;SDS011;3780;42.424;25.636;2022-10-16T07:47:06;12.82;;;7.43;;
7477;SDS011;3780;42.424;25.636;2022-10-16T07:49:32;10.55;;;6.18;;
7477;SDS011;3780;42.424;25.636;2022-10-16T07:51:57;11.65;;;6.45;;
7477;SDS011;3780;42.424;25.636;2022-10-16T07:54:23;12.93;;;6.45;;
7477;SDS011;3780;42.424;25.636;2022-10-16T07:56:48;12.27;;;7.03;;
7477;SDS011;3780;42.424;25.636;2022-10-16T07:59:14;11.10;;;7.20;;
7477;SDS011;3780;42.424;25.636;2022-10-16T08:01:39;13.40;;;7.07;;
7477;SDS011;3780;42.424;25.636;2022-10-16T08:04:07;13.52;;;7.68;;
7477;SDS011;3780;42.424;25.636;2022-10-16T08:06:37;12.98;;;8.15;;
7477;SDS011;3780;42.424;25.636;2022-10-16T08:09:04;11.50;;;7.22;;
7477;SDS011;3780;42.424;25.636;2022-10-16T08:11:31;14.57;;;8.10;;
7477;SDS011;3780;42.424;25.636;2022-10-16T08:13:57;13.63;;;7.65;;
7477;SDS011;3780;42.424;25.636;2022-10-16T08:16:22;16.83;;;6.82;;
7477;SDS011;3780;42.424;25.636;2022-10-16T08:18:48;19.10;;;9.95;;
7477;SDS011;3780;42.424;25.636;2022-10-16T08:21:15;16.45;;;11.10;;
7477;SDS011;3780;42.424;25.636;2022-10-16T08:23:42;13.52;;;9.55;;
7477;SDS011;3780;42.424;25.636;2022-10-16T08:26:09;20.23;;;10.75;;
7477;SDS011;3780;42.424;25.636;2022-10-16T08:28:35;14.23;;;7.07;;
7477;SDS011;3780;42.424;25.636;2022-10-16T08:31:06;12.30;;;7.65;;
7477;SDS011;3780;42.424;25.636;2022-10-16T08:33:36;25.23;;;8.25;;
7477;SDS011;3780;42.424;25.636;2022-10-16T08:36:02;14.55;;;7.13;;
7477;SDS011;3780;42.424;25.636;2022-10-16T08:38:29;25.92;;;12.90;;
7477;SDS011;3780;42.424;25.636;2022-10-16T08:40:57;25.50;;;12.07;;
7477;SDS011;3780;42.424;25.636;2022-10-16T08:43:44;78.50;;;16.08;;
7477;SDS011;3780;42.424;25.636;2022-10-16T08:49:10;12.38;;;6.80;;
7477;SDS011;3780;42.424;25.636;2022-10-16T08:51:41;26.13;;;7.85;;
7477;SDS011;3780;42.424;25.636;2022-10-16T08:57:12;15.52;;;6.35;;
7477;SDS011;3780;42.424;25.636;2022-10-16T08:59:41;10.20;;;6.53;;
7477;SDS011;3780;42.424;25.636;2022-10-16T09:02:16;16.13;;;6.40;;
7477;SDS011;3780;42.424;25.636;2022-10-16T09:15:32;11.98;;;5.95;;
7477;SDS011;3780;42.424;25.636;2022-10-16T09:23:32;11.68;;;5.78;;
7477;SDS011;3780;42.424;25.636;2022-10-16T09:26:00;8.75;;;5.50;;
7477;SDS011;3780;42.424;25.636;2022-10-16T09:28:27;13.70;;;6.15;;
7477;SDS011;3780;42.424;25.636;2022-10-16T09:30:53;9.10;;;4.95;;
7477;SDS011;3780;42.424;25.636;2022-10-16T09:33:20;8.43;;;4.72;;
7477;SDS011;3780;42.424;25.636;2022-10-16T09:35:51;9.15;;;5.75;;
7477;SDS011;3780;42.424;25.636;2022-10-16T09:38:29;13.43;;;5.30;;
7477;SDS011;3780;42.424;25.636;2022-10-16T09:41:00;17.83;;;5.10;;
7477;SDS011;3780;42.424;25.636;2022-10-16T09:46:25;10.65;;;4.57;;
7477;SDS011;3780;42.424;25.636;2022-10-16T09:48:56;6.35;;;3.92;;
7477;SDS011;3780;42.424;25.636;2022-10-16T09:53:54;6.47;;;3.70;;
7477;SDS011;3780;42.424;25.636;2022-10-16T09:56:26;9.48;;;4.68;;
7477;SDS011;3780;42.424;25.636;2022-10-16T09:58:58;22.98;;;15.25;;
7477;SDS011;3780;42.424;25.636;2022-10-16T10:02:04;8.38;;;5.18;;
7477;SDS011;3780;42.424;25.636;2022-10-16T10:04:40;9.05;;;3.28;;
7477;SDS011;3780;42.424;25.636;2022-10-16T10:07:20;25.85;;;6.05;;
7477;SDS011;3780;42.424;25.636;2022-10-16T10:09:50;8.85;;;3.95;;
7477;SDS011;3780;42.424;25.636;2022-10-16T10:12:17;10.85;;;5.03;;
7477;SDS011;3780;42.424;25.636;2022-10-16T10:14:44;6.10;;;3.10;;
7477;SDS011;3780;42.424;25.636;2022-10-16T10:17:14;5.80;;;2.45;;
7477;SDS011;3780;42.424;25.636;2022-10-16T10:19:50;5.13;;;3.03;;
7477;SDS011;3780;42.424;25.636;2022-10-16T10:22:21;5.47;;;2.38;;
7477;SDS011;3780;42.424;25.636;2022-10-16T10:24:57;3.05;;;2.10;;
7477;SDS011;3780;42.424;25.636;2022-10-16T10:27:25;3.55;;;2.15;;
7477;SDS011;3780;42.424;25.636;2022-10-16T10:30:03;7.25;;;3.20;;
7477;SDS011;3780;42.424;25.636;2022-10-16T10:50:12;4.25;;;1.80;;
7477;SDS011;3780;42.424;25.636;2022-10-16T10:55:37;8.73;;;4.35;;
7477;SDS011;3780;42.424;25.636;2022-10-16T11:01:09;11.45;;;4.07;;
7477;SDS011;3780;42.424;25.636;2022-10-16T11:06:24;5.40;;;3.88;;
7477;SDS011;3780;42.424;25.636;2022-10-16T11:09:02;12.00;;;4.72;;
7477;SDS011;3780;42.424;25.636;2022-10-16T11:11:47;9.90;;;3.90;;
7477;SDS011;3780;42.424;25.636;2022-10-16T11:14:28;10.23;;;4.35;;
7477;SDS011;3780;42.424;25.636;2022-10-16T11:17:13;7.43;;;3.95;;
7477;SDS011;3780;42.424;25.636;2022-10-16T11:25:04;6.37;;;3.10;;
7477;SDS011;3780;42.424;25.636;2022-10-16T11:28:07;4.30;;;3.05;;
7477;SDS011;3780;42.424;25.636;2022-10-16T11:41:27;6.03;;;3.10;;
7477;SDS011;3780;42.424;25.636;2022-10-16T11:44:12;5.35;;;3.53;;
7477;SDS011;3780;42.424;25.636;2022-10-16T11:49:39;6.53;;;3.70;;
7477;SDS011;3780;42.424;25.636;2022-10-16T11:57:12;8.15;;;3.80;;
7477;SDS011;3780;42.424;25.636;2022-10-16T12:02:49;5.97;;;3.05;;
7477;SDS011;3780;42.424;25.636;2022-10-16T12:08:33;6.93;;;3.03;;
7477;SDS011;3780;42.424;25.636;2022-10-16T12:11:07;5.03;;;3.05;;
7477;SDS011;3780;42.424;25.636;2022-10-16T12:13:47;7.60;;;3.67;;
7477;SDS011;3780;42.424;25.636;2022-10-16T12:18:39;6.63;;;3.25;;
7477;SDS011;3780;42.424;25.636;2022-10-16T12:21:06;4.57;;;2.80;;
7477;SDS011;3780;42.424;25.636;2022-10-16T12:23:36;10.95;;;3.70;;
7477;SDS011;3780;42.424;25.636;2022-10-16T12:26:03;3.70;;;2.75;;
7477;SDS011;3780;42.424;25.636;2022-10-16T12:28:31;4.03;;;2.55;;
7477;SDS011;3780;42.424;25.636;2022-10-16T12:31:00;3.67;;;2.10;;
7477;SDS011;3780;42.424;25.636;2022-10-16T12:33:29;6.70;;;2.83;;
7477;SDS011;3780;42.424;25.636;2022-10-16T12:35:57;7.53;;;2.60;;
7477;SDS011;3780;42.424;25.636;2022-10-16T12:38:26;7.60;;;2.45;;
7477;SDS011;3780;42.424;25.636;2022-10-16T12:40:59;5.88;;;2.30;;
7477;SDS011;3780;42.424;25.636;2022-10-16T12:43:34;5.70;;;2.42;;
7477;SDS011;3780;42.424;25.636;2022-10-16T12:46:22;5.50;;;2.42;;
7477;SDS011;3780;42.424;25.636;2022-10-16T12:51:39;5.40;;;2.47;;
7477;SDS011;3780;42.424;25.636;2022-10-16T12:54:16;4.70;;;2.60;;
7477;SDS011;3780;42.424;25.636;2022-10-16T12:59:43;8.73;;;3.03;;
7477;SDS011;3780;42.424;25.636;2022-10-16T13:02:48;5.70;;;2.88;;
7477;SDS011;3780;42.424;25.636;2022-10-16T13:10:55;3.75;;;2.22;;
7477;SDS011;3780;42.424;25.636;2022-10-16T13:16:44;7.93;;;2.20;;
7477;SDS011;3780;42.424;25.636;2022-10-16T13:30:10;6.85;;;2.40;;
7477;SDS011;3780;42.424;25.636;2022-10-16T13:32:49;5.38;;;2.55;;
7477;SDS011;3780;42.424;25.636;2022-10-16T13:35:32;5.18;;;2.85;;
7477;SDS011;3780;42.424;25.636;2022-10-16T13:38:33;11.57;;;3.47;;
7477;SDS011;3780;42.424;25.636;2022-10-16T13:41:05;5.50;;;2.08;;
7477;SDS011;3780;42.424;25.636;2022-10-16T13:43:39;7.20;;;4.03;;
7477;SDS011;3780;42.424;25.636;2022-10-16T13:51:24;4.82;;;2.10;;
7477;SDS011;3780;42.424;25.636;2022-10-16T13:53:52;3.72;;;2.08;;
7477;SDS011;3780;42.424;25.636;2022-10-16T13:56:20;4.90;;;1.63;;
7477;SDS011;3780;42.424;25.636;2022-10-16T13:59:01;4.50;;;2.20;;
7477;SDS011;3780;42.424;25.636;2022-10-16T14:01:32;5.85;;;2.05;;
7477;SDS011;3780;42.424;25.636;2022-10-16T14:04:10;6.10;;;2.40;;
7477;SDS011;3780;42.424;25.636;2022-10-16T14:06:43;4.60;;;1.98;;
7477;SDS011;3780;42.424;25.636;2022-10-16T14:09:19;5.60;;;2.05;;
7477;SDS011;3780;42.424;25.636;2022-10-16T14:11:49;7.35;;;2.95;;
7477;SDS011;3780;42.424;25.636;2022-10-16T14:14:21;5.18;;;2.22;;
7477;SDS011;3780;42.424;25.636;2022-10-16T14:16:48;15.57;;;2.58;;
7477;SDS011;3780;42.424;25.636;2022-10-16T14:19:22;4.80;;;2.00;;
7477;SDS011;3780;42.424;25.636;2022-10-16T14:21:52;7.72;;;2.42;;
7477;SDS011;3780;42.424;25.636;2022-10-16T14:24:36;6.78;;;2.70;;
7477;SDS011;3780;42.424;25.636;2022-10-16T14:27:02;4.93;;;2.60;;
7477;SDS011;3780;42.424;25.636;2022-10-16T14:29:47;9.00;;;2.30;;
7477;SDS011;3780;42.424;25.636;2022-10-16T14:32:20;18.38;;;5.50;;
7477;SDS011;3780;42.424;25.636;2022-10-16T14:34:52;7.97;;;4.53;;
7477;SDS011;3780;42.424;25.636;2022-10-16T14:37:27;7.43;;;2.90;;
7477;SDS011;3780;42.424;25.636;2022-10-16T14:39:53;5.22;;;1.92;;
7477;SDS011;3780;42.424;25.636;2022-10-16T14:42:21;8.48;;;2.42;;
7477;SDS011;3780;42.424;25.636;2022-10-16T14:44:53;6.28;;;2.45;;
7477;SDS011;3780;42.424;25.636;2022-10-16T14:47:20;10.32;;;2.72;;
7477;SDS011;3780;42.424;25.636;2022-10-16T14:49:50;17.15;;;2.40;;
7477;SDS011;3780;42.424;25.636;2022-10-16T14:52:16;10.60;;;2.38;;
7477;SDS011;3780;42.424;25.636;2022-10-16T14:54:42;5.75;;;3.15;;
7477;SDS011;3780;42.424;25.636;2022-10-16T14:57:42;6.20;;;2.10;;
7477;SDS011;3780;42.424;25.636;2022-10-16T15:00:00;5.32;;;2.65;;
7477;SDS011;3780;42.424;25.636;2022-10-16T15:02:28;10.55;;;5.57;;
7477;SDS011;3780;42.424;25.636;2022-10-16T15:04:56;7.57;;;2.42;;
7477;SDS011;3780;42.424;25.636;2022-10-16T15:07:22;9.10;;;2.70;;
7477;SDS011;3780;42.424;25.636;2022-10-16T15:09:48;8.63;;;2.60;;
7477;SDS011;3780;42.424;25.636;2022-10-16T15:12:13;6.93;;;2.90;;
7477;SDS011;3780;42.424;25.636;2022-10-16T15:14:39;10.45;;;3.15;;
7477;SDS011;3780;42.424;25.636;2022-10-16T15:17:04;9.77;;;3.05;;
7477;SDS011;3780;42.424;25.636;2022-10-16T15:19:30;7.40;;;4.28;;
7477;SDS011;3780;42.424;25.636;2022-10-16T15:21:56;12.88;;;5.20;;
7477;SDS011;3780;42.424;25.636;2022-10-16T15:24:21;24.10;;;9.30;;
7477;SDS011;3780;42.424;25.636;2022-10-16T15:26:47;9.13;;;4.20;;
7477;SDS011;3780;42.424;25.636;2022-10-16T15:29:14;13.18;;;3.40;;
7477;SDS011;3780;42.424;25.636;2022-10-16T15:31:40;5.70;;;2.88;;
7477;SDS011;3780;42.424;25.636;2022-10-16T15:34:08;12.00;;;3.47;;
7477;SDS011;3780;42.424;25.636;2022-10-16T15:36:35;10.40;;;3.30;;
7477;SDS011;3780;42.424;25.636;2022-10-16T15:39:08;7.10;;;3.50;;
7477;SDS011;3780;42.424;25.636;2022-10-16T15:41:36;7.10;;;3.50;;
7477;SDS011;3780;42.424;25.636;2022-10-16T15:44:01;7.38;;;3.08;;
7477;SDS011;3780;42.424;25.636;2022-10-16T15:46:26;7.97;;;3.17;;
7477;SDS011;3780;42.424;25.636;2022-10-16T15:48:56;10.65;;;2.97;;
7477;SDS011;3780;42.424;25.636;2022-10-16T15:51:22;10.25;;;3.53;;
7477;SDS011;3780;42.424;25.636;2022-10-16T15:53:48;9.38;;;4.57;;
7477;SDS011;3780;42.424;25.636;2022-10-16T15:56:15;6.10;;;3.65;;
7477;SDS011;3780;42.424;25.636;2022-10-16T15:58:41;9.48;;;3.75;;
7477;SDS011;3780;42.424;25.636;2022-10-16T16:01:07;14.25;;;3.70;;
7477;SDS011;3780;42.424;25.636;2022-10-16T16:03:35;9.80;;;3.88;;
7477;SDS011;3780;42.424;25.636;2022-10-16T16:06:08;14.82;;;3.50;;
7477;SDS011;3780;42.424;25.636;2022-10-16T16:08:36;15.68;;;4.53;;
7477;SDS011;3780;42.424;25.636;2022-10-16T16:11:11;17.35;;;4.20;;
7477;SDS011;3780;42.424;25.636;2022-10-16T16:13:40;9.60;;;3.42;;
7477;SDS011;3780;42.424;25.636;2022-10-16T16:16:10;9.98;;;3.80;;
7477;SDS011;3780;42.424;25.636;2022-10-16T16:18:38;18.30;;;4.05;;
7477;SDS011;3780;42.424;25.636;2022-10-16T16:21:03;15.00;;;4.97;;
7477;SDS011;3780;42.424;25.636;2022-10-16T16:23:30;9.07;;;4.47;;
7477;SDS011;3780;42.424;25.636;2022-10-16T16:26:06;13.18;;;4.05;;
7477;SDS011;3780;42.424;25.636;2022-10-16T16:28:32;9.20;;;4.05;;
7477;SDS011;3780;42.424;25.636;2022-10-16T16:30:58;8.63;;;3.72;;
7477;SDS011;3780;42.424;25.636;2022-10-16T16:33:24;15.38;;;3.80;;
7477;SDS011;3780;42.424;25.636;2022-10-16T16:35:49;10.18;;;4.80;;
7477;SDS011;3780;42.424;25.636;2022-10-16T16:38:15;7.40;;;3.75;;
7477;SDS011;3780;42.424;25.636;2022-10-16T16:40:40;10.85;;;3.92;;
7477;SDS011;3780;42.424;25.636;2022-10-16T16:43:06;8.07;;;4.07;;
7477;SDS011;3780;42.424;25.636;2022-10-16T16:45:34;9.63;;;4.18;;
7477;SDS011;3780;42.424;25.636;2022-10-16T16:48:00;9.75;;;4.18;;
7477;SDS011;3780;42.424;25.636;2022-10-16T16:50:26;10.68;;;3.33;;
7477;SDS011;3780;42.424;25.636;2022-10-16T16:52:56;11.27;;;3.85;;
7477;SDS011;3780;42.424;25.636;2022-10-16T16:55:22;7.53;;;3.63;;
7477;SDS011;3780;42.424;25.636;2022-10-16T16:57:48;41.15;;;8.20;;
7477;SDS011;3780;42.424;25.636;2022-10-16T17:00:13;13.95;;;4.60;;
7477;SDS011;3780;42.424;25.636;2022-10-16T17:02:39;12.02;;;4.47;;
7477;SDS011;3780;42.424;25.636;2022-10-16T17:05:08;11.52;;;4.32;;
7477;SDS011;3780;42.424;25.636;2022-10-16T17:07:34;10.80;;;4.20;;
7477;SDS011;3780;42.424;25.636;2022-10-16T17:10:00;13.05;;;4.40;;
7477;SDS011;3780;42.424;25.636;2022-10-16T17:12:26;9.15;;;4.30;;
7477;SDS011;3780;42.424;25.636;2022-10-16T17:14:51;12.32;;;4.32;;
7477;SDS011;3780;42.424;25.636;2022-10-16T17:17:17;15.85;;;4.22;;